Time;durP1;ratioP1;P1;durP2;ratioP2;P2;SDS_P1;SDS_P2;PMS_P1;PMS_P2;Temp;Humidity;BMP_temperature;BMP_pressure;BME280_temperature;BME280_humidity;BME280_pressure;Samples;Min_cycle;Max_cycle;Signal;HPM_P1;HPM_P2
2021/05/01 00:00:00;;;;;;;17.65;12.82;;;12.40;98.90;;;;;;5092050;28;20213;-71
2021/05/01 00:02:27;;;;;;;17.17;12.82;;;12.40;99.00;;;;;;5091859;28;20213;-70
2021/05/01 00:04:53;;;;;;;13.30;11.27;;;12.40;99.20;;;;;;5091926;28;20240;-71
2021/05/01 00:07:19;;;;;;;13.55;11.40;;;12.30;99.10;;;;;;5110161;28;20228;-71
2021/05/01 00:09:46;;;;;;;16.63;12.98;;;12.30;99.20;;;;;;5092136;28;20851;-70
2021/05/01 00:12:12;;;;;;;16.65;12.15;;;12.30;99.20;;;;;;5104945;28;20258;-71
2021/05/01 00:14:39;;;;;;;14.25;11.40;;;12.30;99.30;;;;;;5107912;28;20334;-70
2021/05/01 00:17:05;;;;;;;12.98;11.27;;;12.30;99.30;;;;;;5100736;28;20199;-70
2021/05/01 00:19:31;;;;;;;14.13;11.95;;;12.30;99.30;;;;;;5094202;28;20220;-70
2021/05/01 00:21:58;;;;;;;14.30;11.40;;;12.30;99.50;;;;;;5092492;28;20193;-70
2021/05/01 00:24:24;;;;;;;13.98;11.60;;;12.30;99.40;;;;;;5090683;28;20229;-70
2021/05/01 00:26:51;;;;;;;14.48;12.43;;;12.30;99.60;;;;;;5090377;28;20201;-71
2021/05/01 00:29:17;;;;;;;14.20;11.75;;;12.20;99.70;;;;;;5094037;28;20193;-71
2021/05/01 00:31:43;;;;;;;15.55;11.68;;;12.20;99.70;;;;;;5090796;28;20238;-70
2021/05/01 00:34:10;;;;;;;17.40;11.77;;;12.20;99.80;;;;;;5091686;28;20201;-71
2021/05/01 00:36:36;;;;;;;15.43;11.25;;;12.20;99.80;;;;;;5110712;28;20557;-71
2021/05/01 00:39:03;;;;;;;17.80;13.98;;;12.20;99.90;;;;;;5098552;28;20193;-71
2021/05/01 00:41:29;;;;;;;15.45;12.77;;;12.20;99.90;;;;;;5090752;28;20224;-70
2021/05/01 00:43:56;;;;;;;13.65;12.00;;;12.20;99.90;;;;;;5090933;28;20781;-70
2021/05/01 00:46:22;;;;;;;14.10;11.73;;;12.20;99.90;;;;;;5091621;28;20197;-70
2021/05/01 00:48:48;;;;;;;14.57;11.55;;;12.20;99.90;;;;;;5102493;28;20274;-70
2021/05/01 00:51:14;;;;;;;15.70;11.90;;;12.20;99.90;;;;;;5110896;28;20203;-70
2021/05/01 00:53:41;;;;;;;14.90;11.73;;;12.20;99.90;;;;;;5111114;28;20201;-70
2021/05/01 00:56:08;;;;;;;18.00;11.90;;;12.20;99.90;;;;;;5108808;28;20201;-71
2021/05/01 00:58:34;;;;;;;15.75;12.25;;;12.20;99.90;;;;;;5100394;28;20197;-71
2021/05/01 01:01:16;;;;;;;14.65;12.20;;;12.20;99.90;;;;;;5110590;28;20738;-72
2021/05/01 01:03:43;;;;;;;17.15;13.23;;;12.20;99.90;;;;;;5102344;28;20189;-71
2021/05/01 01:06:10;;;;;;;17.45;13.00;;;12.20;99.90;;;;;;5094892;28;20636;-71
2021/05/01 01:08:36;;;;;;;17.27;12.85;;;12.20;99.90;;;;;;5099627;28;20201;-71
2021/05/01 01:11:03;;;;;;;14.60;12.45;;;12.20;99.90;;;;;;5090077;28;20197;-71
2021/05/01 01:13:30;;;;;;;16.50;13.13;;;12.20;99.90;;;;;;5090255;28;20720;-71
2021/05/01 01:15:56;;;;;;;15.15;12.00;;;12.20;99.90;;;;;;5095286;28;20257;-71
2021/05/01 01:18:23;;;;;;;13.20;11.32;;;12.20;99.90;;;;;;5100662;28;20509;-71
2021/05/01 01:20:49;;;;;;;14.30;12.32;;;12.20;99.90;;;;;;5104605;28;20213;-71
2021/05/01 01:23:16;;;;;;;17.15;12.88;;;12.20;99.90;;;;;;5090034;28;20193;-71
2021/05/01 01:25:43;;;;;;;13.07;11.50;;;12.20;99.90;;;;;;5090019;28;20201;-70
2021/05/01 01:28:09;;;;;;;14.07;11.27;;;12.20;99.90;;;;;;5102642;28;20220;-71
2021/05/01 01:30:35;;;;;;;15.18;12.48;;;12.20;99.90;;;;;;5090069;28;20193;-71
2021/05/01 01:33:04;;;;;;;15.90;12.55;;;12.20;99.90;;;;;;5089921;28;20198;-71
2021/05/01 01:35:30;;;;;;;14.10;12.57;;;12.20;99.90;;;;;;5094503;28;20209;-70
2021/05/01 01:37:57;;;;;;;14.75;11.95;;;12.20;99.90;;;;;;5094595;28;20197;-70
2021/05/01 01:40:24;;;;;;;13.15;11.00;;;12.10;99.90;;;;;;5093804;28;20225;-70
2021/05/01 01:42:52;;;;;;;19.15;13.77;;;12.10;99.90;;;;;;5111061;28;20199;-71
2021/05/01 01:45:21;;;;;;;13.68;11.50;;;12.10;99.90;;;;;;5103933;28;20581;-71
2021/05/01 01:47:47;;;;;;;15.77;12.40;;;12.00;99.90;;;;;;5095845;28;20205;-69
2021/05/01 01:50:16;;;;;;;17.63;13.63;;;12.00;99.90;;;;;;5093306;28;20197;-70
2021/05/01 01:52:42;;;;;;;13.23;11.82;;;12.00;99.90;;;;;;5094621;28;20190;-70
2021/05/01 01:55:11;;;;;;;15.70;12.65;;;12.00;99.90;;;;;;5106907;28;20262;-71
2021/05/01 01:57:38;;;;;;;15.73;11.20;;;12.00;99.90;;;;;;5101241;28;20629;-70
2021/05/01 02:00:06;;;;;;;16.52;13.15;;;12.00;99.90;;;;;;5114112;28;20219;-70
2021/05/01 02:02:33;;;;;;;17.23;12.38;;;12.00;99.90;;;;;;5113545;28;20668;-70
2021/05/01 02:04:59;;;;;;;12.65;11.35;;;12.00;99.90;;;;;;5102956;28;20587;-71
2021/05/01 02:07:25;;;;;;;14.32;12.73;;;11.90;99.90;;;;;;5110364;28;20197;-71
2021/05/01 02:09:51;;;;;;;15.15;11.38;;;12.00;99.90;;;;;;5113412;28;20204;-71
2021/05/01 02:12:17;;;;;;;15.73;12.15;;;11.90;99.90;;;;;;5105853;28;20192;-71
2021/05/01 02:14:44;;;;;;;15.85;13.32;;;11.90;99.90;;;;;;5112790;28;20200;-70
2021/05/01 02:17:10;;;;;;;14.07;10.75;;;11.90;99.90;;;;;;5111614;28;20193;-71
2021/05/01 02:19:37;;;;;;;16.10;12.82;;;11.90;99.90;;;;;;5099189;28;20204;-71
2021/05/01 02:22:03;;;;;;;16.05;12.10;;;11.80;99.90;;;;;;5092973;28;20232;-70
2021/05/01 02:24:29;;;;;;;20.85;12.77;;;11.80;99.90;;;;;;5092686;28;20286;-70
2021/05/01 02:26:55;;;;;;;13.88;12.00;;;11.90;99.90;;;;;;5105311;28;20204;-70
2021/05/01 02:29:21;;;;;;;14.25;12.70;;;11.80;99.90;;;;;;5111883;28;20208;-70
2021/05/01 02:31:48;;;;;;;13.40;11.60;;;11.80;99.90;;;;;;5095958;28;20223;-70
2021/05/01 02:34:14;;;;;;;16.58;12.40;;;11.80;99.90;;;;;;5092639;28;20714;-70
2021/05/01 02:36:41;;;;;;;16.38;11.95;;;11.80;99.90;;;;;;5102500;28;20197;-70
2021/05/01 02:39:07;;;;;;;14.10;11.80;;;11.80;99.90;;;;;;5099865;28;20537;-70
2021/05/01 02:41:34;;;;;;;13.48;11.70;;;11.80;99.90;;;;;;5092813;28;20274;-70
2021/05/01 02:44:00;;;;;;;15.00;11.77;;;11.70;99.90;;;;;;5092695;28;20227;-70
2021/05/01 02:46:26;;;;;;;13.25;11.73;;;11.80;99.90;;;;;;5099821;28;20193;-70
2021/05/01 02:48:53;;;;;;;18.50;13.20;;;11.80;99.90;;;;;;5104366;28;20200;-71
2021/05/01 02:51:19;;;;;;;16.65;13.13;;;11.80;99.90;;;;;;5113800;28;20208;-70
2021/05/01 02:53:46;;;;;;;12.93;11.57;;;11.80;99.90;;;;;;5113693;28;20262;-70
2021/05/01 02:56:12;;;;;;;13.43;11.38;;;11.80;99.90;;;;;;5109983;28;20205;-70
2021/05/01 02:58:38;;;;;;;16.73;12.43;;;11.80;99.90;;;;;;5113551;28;20238;-70
2021/05/01 03:01:04;;;;;;;16.55;12.20;;;11.80;99.90;;;;;;5112541;28;20755;-70
2021/05/01 03:03:30;;;;;;;14.85;11.65;;;11.80;99.90;;;;;;5113470;28;20582;-70
2021/05/01 03:05:57;;;;;;;13.93;12.15;;;11.70;99.90;;;;;;5105326;28;20514;-70
2021/05/01 03:08:23;;;;;;;15.90;12.18;;;11.70;99.90;;;;;;5112141;28;20215;-70
2021/05/01 03:10:50;;;;;;;14.07;11.95;;;11.70;99.90;;;;;;5092844;28;20194;-70
2021/05/01 03:13:16;;;;;;;17.25;13.32;;;11.70;99.90;;;;;;5093006;28;20216;-70
2021/05/01 03:15:42;;;;;;;15.27;12.90;;;11.70;99.90;;;;;;5093739;28;20270;-70
2021/05/01 03:18:09;;;;;;;13.82;11.68;;;11.70;99.90;;;;;;5099821;28;20212;-70
2021/05/01 03:20:35;;;;;;;12.98;11.68;;;11.70;99.90;;;;;;5110055;28;20229;-70
2021/05/01 03:23:06;;;;;;;13.30;11.35;;;11.60;99.90;;;;;;5100875;28;20558;-70
2021/05/01 03:25:32;;;;;;;14.27;12.00;;;11.60;99.90;;;;;;5109804;28;20228;-70
2021/05/01 03:27:59;;;;;;;17.05;12.55;;;11.70;99.90;;;;;;5095846;28;20193;-70
2021/05/01 03:30:25;;;;;;;13.65;12.20;;;11.60;99.90;;;;;;5113198;28;20189;-70
2021/05/01 03:32:51;;;;;;;13.10;11.15;;;11.60;99.90;;;;;;5112891;28;20197;-70
2021/05/01 03:35:17;;;;;;;13.75;10.73;;;11.70;99.90;;;;;;5092251;28;20663;-70
2021/05/01 03:37:44;;;;;;;13.57;11.90;;;11.60;99.90;;;;;;5110828;28;20193;-70
2021/05/01 03:40:12;;;;;;;15.05;11.82;;;11.60;99.90;;;;;;5096506;28;20236;-70
2021/05/01 03:42:38;;;;;;;13.70;12.13;;;11.60;99.90;;;;;;5092697;28;20194;-70
2021/05/01 03:45:06;;;;;;;13.45;11.93;;;11.50;99.90;;;;;;5092268;28;20246;-70
2021/05/01 03:47:33;;;;;;;12.38;10.63;;;11.60;99.90;;;;;;5091950;28;20194;-69
2021/05/01 03:49:59;;;;;;;12.40;11.13;;;11.60;99.90;;;;;;5090601;28;20189;-70
2021/05/01 03:52:25;;;;;;;11.60;10.40;;;11.60;99.90;;;;;;5091336;28;20211;-70
2021/05/01 03:54:51;;;;;;;14.30;12.70;;;11.60;99.90;;;;;;5090175;28;20213;-70
2021/05/01 03:57:18;;;;;;;11.93;10.82;;;11.60;99.90;;;;;;5096240;28;20197;-70
2021/05/01 03:59:45;;;;;;;12.68;11.15;;;11.50;99.90;;;;;;5108556;28;20519;-70
2021/05/01 04:02:11;;;;;;;16.23;11.90;;;11.60;99.90;;;;;;5111372;28;20216;-70
2021/05/01 04:04:37;;;;;;;13.18;11.75;;;11.60;99.90;;;;;;5094023;28;20201;-70
2021/05/01 04:07:03;;;;;;;13.20;11.10;;;11.60;99.90;;;;;;5106604;28;20204;-70
2021/05/01 04:09:29;;;;;;;12.48;11.27;;;11.50;99.90;;;;;;5095879;28;20209;-71
2021/05/01 04:11:55;;;;;;;13.80;11.75;;;11.50;99.90;;;;;;5090890;28;20193;-70
2021/05/01 04:14:22;;;;;;;11.15;10.02;;;11.50;99.90;;;;;;5090466;28;20205;-70
2021/05/01 04:16:48;;;;;;;11.50;10.40;;;11.50;99.90;;;;;;5105435;28;20633;-70
2021/05/01 04:19:15;;;;;;;14.85;10.30;;;11.50;99.90;;;;;;5109300;28;20533;-70
2021/05/01 04:21:41;;;;;;;11.93;10.70;;;11.40;99.90;;;;;;5109640;28;20220;-71
2021/05/01 04:24:08;;;;;;;12.70;11.20;;;11.50;99.90;;;;;;5094941;28;20259;-71
2021/05/01 04:26:34;;;;;;;15.65;12.48;;;11.50;99.90;;;;;;5111438;28;20252;-71
2021/05/01 04:29:01;;;;;;;12.63;11.13;;;11.40;99.90;;;;;;5097778;28;20204;-70
2021/05/01 04:31:28;;;;;;;14.43;11.57;;;11.50;99.90;;;;;;5102385;28;20189;-70
2021/05/01 04:33:54;;;;;;;11.57;10.27;;;11.40;99.90;;;;;;5110742;28;20212;-70
2021/05/01 04:36:20;;;;;;;12.55;10.98;;;11.50;99.90;;;;;;5106100;28;20567;-70
2021/05/01 04:38:46;;;;;;;11.45;10.25;;;11.50;99.90;;;;;;5098174;28;20200;-70
2021/05/01 04:41:12;;;;;;;12.07;10.15;;;11.50;99.90;;;;;;5090654;28;20220;-70
2021/05/01 04:43:40;;;;;;;12.70;10.95;;;11.50;99.90;;;;;;5090799;28;20262;-70
2021/05/01 04:46:06;;;;;;;12.70;10.98;;;11.50;99.90;;;;;;5090511;28;20209;-70
2021/05/01 04:48:33;;;;;;;11.63;10.32;;;11.50;99.90;;;;;;5091435;28;20247;-70
2021/05/01 04:50:59;;;;;;;12.60;10.93;;;11.40;99.90;;;;;;5091115;28;20193;-69
2021/05/01 04:53:26;;;;;;;11.20;10.05;;;11.50;99.90;;;;;;5090579;28;20197;-70
2021/05/01 04:55:52;;;;;;;13.07;10.77;;;11.50;99.90;;;;;;5090778;28;20228;-69
2021/05/01 04:58:18;;;;;;;10.43;9.10;;;11.50;99.90;;;;;;5094604;28;20222;-70
2021/05/01 05:00:44;;;;;;;11.90;9.75;;;11.50;99.90;;;;;;5093104;28;20359;-69
2021/05/01 05:03:11;;;;;;;11.65;10.48;;;11.50;99.90;;;;;;5089426;28;20208;-69
2021/05/01 05:05:38;;;;;;;11.35;9.35;;;11.50;99.90;;;;;;5090333;28;20201;-69
2021/05/01 05:08:04;;;;;;;14.25;12.23;;;11.50;99.90;;;;;;5108812;28;20231;-70
2021/05/01 05:10:30;;;;;;;13.50;11.63;;;11.50;99.90;;;;;;5112941;28;20193;-70
2021/05/01 05:12:57;;;;;;;12.68;11.15;;;11.50;99.90;;;;;;5114230;28;20201;-69
2021/05/01 05:15:23;;;;;;;12.40;10.05;;;11.50;99.90;;;;;;5101032;28;20203;-70
2021/05/01 05:17:49;;;;;;;11.65;10.45;;;11.50;99.90;;;;;;5106585;28;20189;-70
2021/05/01 05:20:15;;;;;;;11.68;10.50;;;11.50;99.90;;;;;;5095502;28;20216;-70
2021/05/01 05:22:43;;;;;;;12.23;10.00;;;11.50;99.90;;;;;;5094333;28;20197;-70
2021/05/01 05:25:10;;;;;;;10.75;9.60;;;11.50;99.90;;;;;;5094000;28;20229;-70
2021/05/01 05:27:37;;;;;;;11.35;9.70;;;11.50;99.90;;;;;;5094783;28;20622;-70
2021/05/01 05:30:04;;;;;;;11.55;10.10;;;11.50;99.90;;;;;;5101410;28;20204;-70
2021/05/01 05:32:30;;;;;;;11.82;10.63;;;11.50;99.90;;;;;;5114407;28;20200;-70
2021/05/01 05:34:56;;;;;;;11.73;10.52;;;11.50;99.90;;;;;;5114563;28;20205;-70
2021/05/01 05:37:22;;;;;;;10.75;9.65;;;11.50;99.90;;;;;;5109663;28;20198;-70
2021/05/01 05:39:50;;;;;;;12.90;11.20;;;11.40;99.90;;;;;;5113214;28;20193;-70
2021/05/01 05:42:17;;;;;;;12.93;11.27;;;11.40;99.90;;;;;;5114120;28;20225;-70
2021/05/01 05:44:45;;;;;;;11.98;10.15;;;11.40;99.90;;;;;;5109154;28;20199;-70
2021/05/01 05:47:11;;;;;;;11.65;10.45;;;11.40;99.90;;;;;;5093362;28;20637;-70
2021/05/01 05:49:38;;;;;;;12.10;10.90;;;11.40;99.90;;;;;;5105219;28;20837;-70
2021/05/01 05:52:05;;;;;;;14.40;11.57;;;11.40;99.90;;;;;;5104103;28;20676;-70
2021/05/01 05:54:31;;;;;;;12.25;10.95;;;11.40;99.90;;;;;;5094802;28;20630;-70
2021/05/01 05:56:59;;;;;;;12.75;11.43;;;11.40;99.90;;;;;;5109049;28;20692;-70
2021/05/01 05:59:25;;;;;;;11.75;10.23;;;11.50;99.90;;;;;;5113843;28;20469;-70
2021/05/01 06:01:52;;;;;;;14.23;11.93;;;11.50;99.90;;;;;;5104062;28;20208;-69
2021/05/01 06:04:29;;;;;;;14.57;12.15;;;11.50;99.90;;;;;;5094382;28;20208;-70
2021/05/01 06:07:03;;;;;;;14.75;12.52;;;11.50;99.90;;;;;;5098561;28;20193;-70
2021/05/01 06:09:30;;;;;;;15.75;13.13;;;11.50;99.90;;;;;;5100715;28;20215;-70
2021/05/01 06:11:59;;;;;;;15.05;12.20;;;11.60;99.90;;;;;;5094711;28;20194;-70
2021/05/01 06:14:27;;;;;;;16.80;13.60;;;11.60;99.90;;;;;;5093544;28;20288;-70
2021/05/01 06:16:54;;;;;;;12.02;10.73;;;11.70;99.90;;;;;;5093153;28;20220;-70
2021/05/01 06:19:21;;;;;;;11.20;10.10;;;11.80;99.90;;;;;;5097571;28;20251;-70
2021/05/01 06:21:47;;;;;;;12.05;10.35;;;11.90;99.90;;;;;;5092853;28;20226;-70
2021/05/01 06:24:14;;;;;;;11.02;9.95;;;12.10;99.90;;;;;;5092454;28;20771;-70
2021/05/01 06:26:40;;;;;;;11.38;10.38;;;12.30;99.90;;;;;;5093076;28;20212;-71
2021/05/01 06:29:07;;;;;;;12.85;11.23;;;12.50;99.90;;;;;;5092751;28;20201;-70
2021/05/01 06:31:36;;;;;;;10.48;9.38;;;12.60;99.90;;;;;;5095034;28;20194;-70
2021/05/01 06:34:03;;;;;;;11.07;9.77;;;12.70;99.90;;;;;;5092848;28;20583;-70
2021/05/01 06:36:31;;;;;;;13.23;9.00;;;12.90;99.90;;;;;;5094304;28;20197;-70
2021/05/01 06:39:01;;;;;;;10.90;9.80;;;13.00;99.90;;;;;;5113256;28;20193;-70
2021/05/01 06:41:37;;;;;;;9.98;8.55;;;13.10;99.60;;;;;;5097880;28;20212;-76
2021/05/01 06:44:07;;;;;;;10.32;9.27;;;13.20;99.30;;;;;;5112957;28;20192;-70
2021/05/01 06:46:38;;;;;;;10.52;9.52;;;13.20;98.90;;;;;;5112809;28;20263;-70
2021/05/01 06:49:08;;;;;;;11.20;9.00;;;13.00;99.10;;;;;;5099948;28;20664;-70
2021/05/01 06:51:37;;;;;;;9.50;8.60;;;13.00;99.20;;;;;;5092716;28;20194;-70
2021/05/01 06:54:04;;;;;;;9.70;8.80;;;13.00;99.40;;;;;;5101152;28;20189;-70
2021/05/01 06:56:30;;;;;;;11.90;9.85;;;12.90;99.40;;;;;;5105688;28;20204;-69
2021/05/01 06:58:59;;;;;;;9.32;8.43;;;12.90;99.50;;;;;;5098138;28;20687;-70
2021/05/01 07:01:25;;;;;;;9.43;8.05;;;12.80;99.60;;;;;;5099585;28;20679;-70
2021/05/01 07:03:52;;;;;;;10.48;8.43;;;12.80;99.60;;;;;;5098263;28;20245;-69
2021/05/01 07:06:19;;;;;;;9.43;8.43;;;12.80;99.60;;;;;;5101876;28;20251;-70
2021/05/01 07:08:46;;;;;;;8.60;7.70;;;12.70;99.70;;;;;;5096893;28;20587;-70
2021/05/01 07:11:13;;;;;;;11.10;8.63;;;12.70;99.80;;;;;;5097467;28;20205;-69
2021/05/01 07:13:40;;;;;;;9.00;8.07;;;12.70;99.80;;;;;;5098966;28;20213;-69
2021/05/01 07:16:09;;;;;;;11.27;9.95;;;12.60;99.90;;;;;;5098479;28;20234;-70
2021/05/01 07:18:37;;;;;;;7.78;6.95;;;12.60;99.90;;;;;;5096903;28;20193;-70
2021/05/01 07:21:06;;;;;;;11.13;8.50;;;12.60;99.90;;;;;;5095216;28;20657;-69
2021/05/01 07:23:32;;;;;;;8.18;7.45;;;12.60;99.90;;;;;;5095818;28;20264;-69
2021/05/01 07:25:58;;;;;;;8.30;7.13;;;12.80;99.90;;;;;;5110232;28;20192;-69
2021/05/01 07:28:26;;;;;;;8.55;6.30;;;13.00;99.40;;;;;;5092555;28;20276;-70
2021/05/01 07:30:54;;;;;;;8.77;7.88;;;13.30;98.30;;;;;;5092667;28;20190;-70
2021/05/01 07:33:24;;;;;;;8.48;7.57;;;13.50;97.20;;;;;;5091761;28;20192;-72
2021/05/01 07:35:53;;;;;;;8.48;7.63;;;13.70;96.70;;;;;;5096722;28;20276;-71
2021/05/01 07:38:22;;;;;;;8.13;7.43;;;13.60;96.50;;;;;;5107061;28;20201;-70
2021/05/01 07:40:51;;;;;;;12.35;8.68;;;13.50;96.90;;;;;;5111834;28;20212;-70
2021/05/01 07:43:20;;;;;;;9.48;7.88;;;13.30;97.40;;;;;;5112774;28;20205;-70
2021/05/01 07:45:47;;;;;;;7.72;7.00;;;13.10;98.00;;;;;;5100371;28;20218;-70
2021/05/01 07:48:15;;;;;;;10.00;9.00;;;13.10;98.30;;;;;;5100525;28;20298;-76
2021/05/01 07:50:42;;;;;;;8.93;8.13;;;13.20;98.10;;;;;;5111750;28;20193;-76
2021/05/01 07:53:09;;;;;;;7.75;6.88;;;13.30;97.80;;;;;;5110581;28;20207;-76
2021/05/01 07:55:37;;;;;;;11.02;8.30;;;13.40;97.30;;;;;;5106967;28;20329;-76
2021/05/01 07:58:03;;;;;;;9.02;8.15;;;13.50;96.90;;;;;;5096329;28;20206;-76
2021/05/01 08:00:29;;;;;;;9.93;8.10;;;13.60;96.70;;;;;;5091344;28;20217;-76
2021/05/01 08:02:56;;;;;;;9.98;8.60;;;13.60;96.70;;;;;;5105291;28;20193;-74
2021/05/01 08:05:22;;;;;;;8.63;7.82;;;13.60;96.50;;;;;;5091557;28;20193;-75
2021/05/01 08:07:48;;;;;;;10.15;8.05;;;13.80;96.30;;;;;;5101368;28;20196;-74
2021/05/01 08:10:15;;;;;;;10.13;7.80;;;14.00;95.60;;;;;;5093154;28;20217;-74
2021/05/01 08:12:42;;;;;;;9.80;7.32;;;14.10;94.80;;;;;;5091654;28;20201;-75
2021/05/01 08:15:09;;;;;;;10.15;8.52;;;14.10;94.40;;;;;;5096153;28;20629;-75
2021/05/01 08:17:36;;;;;;;8.45;7.65;;;14.10;94.30;;;;;;5090990;28;20198;-74
2021/05/01 08:20:04;;;;;;;9.32;8.27;;;14.10;94.50;;;;;;5091733;28;20208;-74
2021/05/01 08:22:30;;;;;;;9.45;8.45;;;14.00;94.40;;;;;;5104271;28;20660;-74
2021/05/01 08:24:56;;;;;;;8.07;7.38;;;14.00;94.50;;;;;;5106090;28;20599;-74
2021/05/01 08:27:23;;;;;;;8.63;7.82;;;14.00;94.60;;;;;;5100924;28;20199;-75
2021/05/01 08:29:50;;;;;;;9.85;7.70;;;14.10;94.40;;;;;;5092541;28;20204;-74
2021/05/01 08:32:17;;;;;;;8.10;7.03;;;14.30;94.00;;;;;;5099476;28;20205;-74
2021/05/01 08:34:43;;;;;;;7.38;6.78;;;14.40;93.30;;;;;;5100598;28;20204;-74
2021/05/01 08:37:10;;;;;;;8.15;7.35;;;14.60;92.80;;;;;;5094746;28;20201;-75
2021/05/01 08:39:37;;;;;;;6.43;5.82;;;14.60;92.20;;;;;;5091211;28;20259;-75
2021/05/01 08:42:04;;;;;;;8.10;7.30;;;14.60;92.30;;;;;;5102181;28;20312;-74
2021/05/01 08:44:30;;;;;;;9.02;5.45;;;14.60;92.20;;;;;;5090492;28;20235;-74
2021/05/01 08:46:58;;;;;;;6.30;5.40;;;14.70;92.10;;;;;;5090711;28;20613;-75
2021/05/01 08:49:24;;;;;;;7.60;5.90;;;14.80;91.50;;;;;;5105999;28;20189;-75
2021/05/01 08:51:50;;;;;;;6.22;5.63;;;14.80;91.10;;;;;;5109372;28;20196;-74
2021/05/01 08:54:16;;;;;;;7.18;5.40;;;14.80;91.00;;;;;;5101148;28;20233;-74
2021/05/01 08:56:44;;;;;;;6.07;5.53;;;14.90;91.00;;;;;;5110689;28;20207;-74
2021/05/01 08:59:11;;;;;;;5.50;5.00;;;14.90;90.60;;;;;;5098858;28;20571;-74
2021/05/01 09:01:38;;;;;;;5.28;4.88;;;15.00;90.20;;;;;;5092389;28;20224;-75
2021/05/01 09:04:06;;;;;;;5.00;4.50;;;15.10;90.10;;;;;;5103295;28;20193;-74
2021/05/01 09:06:33;;;;;;;5.00;4.60;;;15.20;90.00;;;;;;5108802;28;20286;-74
2021/05/01 09:09:01;;;;;;;5.35;4.78;;;15.30;89.50;;;;;;5099116;28;20223;-74
2021/05/01 09:11:35;;;;;;;5.07;4.68;;;15.40;89.00;;;;;;5099279;28;20189;-74
2021/05/01 09:14:14;;;;;;;5.70;4.95;;;15.50;88.40;;;;;;5100971;28;20193;-74
2021/05/01 09:16:41;;;;;;;6.95;6.35;;;15.50;87.40;;;;;;5100390;28;20266;-74
2021/05/01 09:19:09;;;;;;;5.25;4.60;;;15.40;87.30;;;;;;5107318;28;20941;-74
2021/05/01 09:21:35;;;;;;;6.22;5.05;;;15.30;88.10;;;;;;5100322;28;20206;-75
2021/05/01 09:24:02;;;;;;;6.82;6.22;;;15.20;89.00;;;;;;5089337;28;20229;-74
2021/05/01 09:26:36;;;;;;;5.95;5.15;;;15.10;89.20;;;;;;5090834;28;20677;-77
2021/05/01 09:29:03;;;;;;;7.85;5.22;;;15.00;90.00;;;;;;5105490;28;20254;-76
2021/05/01 09:31:39;;;;;;;5.30;4.45;;;15.00;89.80;;;;;;5102493;28;20837;-76
2021/05/01 09:34:06;;;;;;;7.00;4.47;;;14.90;90.20;;;;;;5107711;28;20192;-75
2021/05/01 09:36:34;;;;;;;9.05;6.18;;;14.90;90.40;;;;;;5094741;28;20197;-75
2021/05/01 09:39:11;;;;;;;5.53;3.65;;;14.80;90.20;;;;;;5101188;28;20194;-75
2021/05/01 09:41:39;;;;;;;4.30;3.90;;;14.80;90.30;;;;;;5109348;28;20266;-75
2021/05/01 09:44:08;;;;;;;5.18;4.65;;;14.80;90.50;;;;;;5105104;28;20209;-77
2021/05/01 09:46:44;;;;;;;4.70;4.25;;;14.80;90.40;;;;;;5108757;28;20193;-76
2021/05/01 09:49:12;;;;;;;5.03;4.40;;;14.70;90.60;;;;;;5091463;28;20200;-76
2021/05/01 09:51:51;;;;;;;5.43;4.95;;;14.80;90.90;;;;;;5096707;28;20197;-76
2021/05/01 09:54:19;;;;;;;5.78;3.95;;;14.80;90.70;;;;;;5099508;28;20248;-75
2021/05/01 09:56:48;;;;;;;4.55;4.15;;;14.90;90.50;;;;;;5098069;28;20804;-75
2021/05/01 09:59:14;;;;;;;4.15;3.72;;;15.00;90.00;;;;;;5100690;28;20259;-75
2021/05/01 10:01:41;;;;;;;4.43;3.72;;;15.10;89.50;;;;;;5107292;28;20208;-75
2021/05/01 10:04:13;;;;;;;3.63;3.33;;;15.10;89.70;;;;;;5112494;28;20201;-75
2021/05/01 10:06:43;;;;;;;4.15;3.78;;;15.20;89.20;;;;;;5105302;28;20208;-75
2021/05/01 10:09:10;;;;;;;3.97;3.58;;;15.20;89.20;;;;;;5105799;28;20188;-75
2021/05/01 10:11:38;;;;;;;4.00;3.63;;;15.20;88.00;;;;;;5093000;28;20205;-75
2021/05/01 10:14:08;;;;;;;4.35;4.00;;;15.20;88.50;;;;;;5092487;28;20205;-75
2021/05/01 10:16:35;;;;;;;3.97;3.60;;;15.20;88.50;;;;;;5103881;28;20291;-75
2021/05/01 10:19:09;;;;;;;4.50;3.53;;;15.00;87.90;;;;;;5112489;28;20610;-76
2021/05/01 10:21:37;;;;;;;4.70;4.30;;;15.00;87.00;;;;;;5113444;27;20513;-75
2021/05/01 10:24:04;;;;;;;4.50;4.10;;;15.10;85.50;;;;;;5109145;27;20224;-75
2021/05/01 10:26:45;;;;;;;6.90;4.00;;;15.20;84.60;;;;;;5121532;27;20193;-75
2021/05/01 10:29:26;;;;;;;5.90;3.97;;;15.20;84.80;;;;;;5094839;28;20193;-76
2021/05/01 10:31:56;;;;;;;3.97;3.60;;;15.20;85.00;;;;;;5109411;28;20532;-75
2021/05/01 10:34:24;;;;;;;5.47;3.65;;;15.20;86.00;;;;;;5110254;28;20303;-75
2021/05/01 10:36:53;;;;;;;4.28;3.83;;;15.10;85.10;;;;;;5108858;28;20193;-76
2021/05/01 10:39:20;;;;;;;4.30;3.90;;;15.10;85.80;;;;;;5111683;28;20189;-76
2021/05/01 10:41:58;;;;;;;3.60;3.30;;;15.20;85.70;;;;;;5106404;28;20708;-76
2021/05/01 10:44:25;;;;;;;3.58;3.28;;;15.10;86.40;;;;;;5105474;28;20188;-74
2021/05/01 10:47:06;;;;;;;4.38;3.30;;;15.20;85.50;;;;;;5094678;28;20651;-75
2021/05/01 10:49:34;;;;;;;3.80;3.30;;;15.20;84.70;;;;;;5108343;28;20193;-75
2021/05/01 10:52:13;;;;;;;3.78;3.47;;;15.20;84.10;;;;;;5100164;28;20224;-74
2021/05/01 10:54:56;;;;;;;3.63;3.33;;;15.20;82.90;;;;;;5106944;27;20186;-73
2021/05/01 10:57:23;;;;;;;3.25;2.95;;;15.20;83.00;;;;;;5109873;28;20212;-74
2021/05/01 11:00:00;;;;;;;2.65;2.33;;;15.30;82.80;;;;;;5111423;28;20209;-74
2021/05/01 11:02:34;;;;;;;4.15;3.85;;;15.30;83.70;;;;;;5112019;28;20215;-75
2021/05/01 11:05:02;;;;;;;2.92;2.65;;;15.30;82.50;;;;;;5091873;28;20189;-75
2021/05/01 11:07:50;;;;;;;3.70;2.97;;;15.30;82.30;;;;;;5107482;28;20250;-75
2021/05/01 11:10:17;;;;;;;6.18;3.70;;;15.30;82.50;;;;;;5102869;28;20201;-75
2021/05/01 11:12:51;;;;;;;3.03;2.78;;;15.30;81.60;;;;;;5091651;28;20186;-74
2021/05/01 11:15:22;;;;;;;4.15;3.58;;;15.30;81.80;;;;;;5100603;28;20232;-75
2021/05/01 11:17:52;;;;;;;4.30;3.70;;;15.30;81.50;;;;;;5104746;28;20256;-75
2021/05/01 11:20:20;;;;;;;3.70;3.22;;;15.30;80.60;;;;;;5097841;28;20224;-76
2021/05/01 11:22:50;;;;;;;3.72;3.40;;;15.30;80.70;;;;;;5103332;28;20214;-75
2021/05/01 11:25:18;;;;;;;4.20;3.80;;;15.20;80.40;;;;;;5098260;28;20286;-77
2021/05/01 11:27:50;;;;;;;8.10;5.63;;;15.20;79.90;;;;;;5105046;28;20203;-76
2021/05/01 11:30:18;;;;;;;4.95;4.03;;;15.20;78.60;;;;;;5110582;28;20207;-75
2021/05/01 11:32:44;;;;;;;3.80;3.47;;;15.30;78.70;;;;;;5098559;28;20190;-76
2021/05/01 11:35:12;;;;;;;3.85;3.55;;;15.30;80.70;;;;;;5105504;28;20200;-75
2021/05/01 11:37:41;;;;;;;3.72;3.42;;;15.30;79.10;;;;;;5103831;28;20193;-75
2021/05/01 11:40:09;;;;;;;3.25;2.95;;;15.40;79.30;;;;;;5101077;28;20194;-75
2021/05/01 11:42:38;;;;;;;4.90;3.40;;;15.40;78.50;;;;;;5109725;28;20217;-76
2021/05/01 11:45:09;;;;;;;4.55;3.45;;;15.40;78.70;;;;;;5092833;28;20243;-75
2021/05/01 11:47:39;;;;;;;4.25;3.55;;;15.40;79.40;;;;;;5090358;28;20872;-75
2021/05/01 11:50:06;;;;;;;6.43;3.65;;;15.40;79.90;;;;;;5106768;28;20208;-75
2021/05/01 11:52:50;;;;;;;4.70;3.00;;;15.40;80.10;;;;;;5091493;28;20242;-74
2021/05/01 11:55:25;;;;;;;3.58;3.28;;;15.40;79.20;;;;;;5110169;28;20193;-75
2021/05/01 11:57:55;;;;;;;4.93;3.70;;;15.40;78.70;;;;;;5096369;28;20196;-76
2021/05/01 12:00:30;;;;;;;3.88;3.47;;;15.40;78.50;;;;;;5096949;28;20258;-73
2021/05/01 12:02:57;;;;;;;3.20;2.95;;;15.40;78.70;;;;;;5108334;28;20224;-75
2021/05/01 12:05:24;;;;;;;3.95;3.33;;;15.40;79.00;;;;;;5110657;28;20200;-75
2021/05/01 12:07:55;;;;;;;4.68;3.50;;;15.40;79.00;;;;;;5109749;28;20208;-74
2021/05/01 12:10:24;;;;;;;3.13;2.92;;;15.40;79.20;;;;;;5107191;28;20197;-75
2021/05/01 12:12:59;;;;;;;5.20;3.03;;;15.40;79.20;;;;;;5110165;28;20664;-74
2021/05/01 12:15:32;;;;;;;3.55;3.05;;;15.40;79.20;;;;;;5110049;28;20314;-75
2021/05/01 12:17:58;;;;;;;3.40;3.05;;;15.40;79.10;;;;;;5090193;28;20201;-75
2021/05/01 12:20:27;;;;;;;3.42;3.10;;;15.40;78.70;;;;;;5093425;28;20723;-75
2021/05/01 12:22:53;;;;;;;2.72;2.53;;;15.40;78.90;;;;;;5101136;28;20213;-74
2021/05/01 12:25:40;;;;;;;3.42;2.85;;;15.40;78.60;;;;;;5091627;28;20221;-74
2021/05/01 12:28:07;;;;;;;3.30;2.90;;;15.40;77.70;;;;;;5097134;28;20197;-75
2021/05/01 12:31:03;;;;;;;2.70;2.50;;;15.40;77.60;;;;;;5102726;28;20541;-73
2021/05/01 12:33:52;;;;;;;2.40;2.20;;;15.40;77.90;;;;;;5103539;28;20200;-74
2021/05/01 12:36:23;;;;;;;2.90;2.60;;;15.40;77.00;;;;;;5098020;28;20201;-75
2021/05/01 12:38:52;;;;;;;2.58;2.38;;;15.40;78.00;;;;;;5110022;28;20189;-73